Time;durP1;ratioP1;P1;durP2;ratioP2;P2;SDS_P1;SDS_P2;PMS_P1;PMS_P2;Temp;Humidity;BMP_temperature;BMP_pressure;BME280_temperature;BME280_humidity;BME280_pressure;Samples;Min_cycle;Max_cycle;Signal;HPM_P1;HPM_P2
2022/01/31 00:00:36;;;;;;;13.83;6.43;;;1.60;99.90;;;;;;5030421;28;20057;-86
2022/01/31 00:03:03;;;;;;;12.65;6.05;;;1.60;99.90;;;;;;5029394;28;20064;-86
2022/01/31 00:05:29;;;;;;;11.02;5.53;;;1.70;99.90;;;;;;5036768;28;20036;-87
2022/01/31 00:07:54;;;;;;;13.07;6.35;;;1.70;99.90;;;;;;5031971;28;20025;-86
2022/01/31 00:10:28;;;;;;;10.82;6.22;;;1.70;99.90;;;;;;5031823;28;20029;-87
2022/01/31 00:13:01;;;;;;;10.55;5.03;;;1.70;99.90;;;;;;5027112;28;20021;-86
2022/01/31 00:15:28;;;;;;;12.98;6.22;;;1.60;99.90;;;;;;5028031;28;20057;-86
2022/01/31 00:17:53;;;;;;;6.60;4.35;;;1.60;99.90;;;;;;5030171;28;20029;-86
2022/01/31 00:20:19;;;;;;;8.00;5.13;;;1.70;99.90;;;;;;5029630;28;20030;-86
2022/01/31 00:22:45;;;;;;;8.07;4.97;;;1.70;99.90;;;;;;5030710;28;20124;-87
2022/01/31 00:25:12;;;;;;;8.20;4.93;;;1.70;99.90;;;;;;5032045;28;20120;-86
2022/01/31 00:27:37;;;;;;;7.60;3.55;;;1.70;99.90;;;;;;5030082;28;20049;-85
2022/01/31 00:30:05;;;;;;;6.78;4.28;;;1.60;99.90;;;;;;5033895;28;20061;-85
2022/01/31 00:32:31;;;;;;;8.23;4.28;;;1.60;99.90;;;;;;5044069;28;20033;-85
2022/01/31 00:34:57;;;;;;;7.22;3.88;;;1.70;99.90;;;;;;5030081;28;20029;-86
2022/01/31 00:37:23;;;;;;;5.93;3.45;;;1.70;99.90;;;;;;5029298;28;20429;-86
2022/01/31 00:39:50;;;;;;;5.63;3.50;;;1.70;99.90;;;;;;5029438;28;20048;-86
2022/01/31 00:42:15;;;;;;;5.07;3.65;;;1.80;99.90;;;;;;5029708;28;20070;-85
2022/01/31 00:44:51;;;;;;;5.32;3.80;;;1.80;99.90;;;;;;5036473;28;20053;-86
2022/01/31 00:47:29;;;;;;;6.35;3.80;;;1.80;99.90;;;;;;5024786;28;20049;-86
2022/01/31 00:50:06;;;;;;;5.55;3.45;;;1.80;99.90;;;;;;5029720;28;20116;-85
2022/01/31 00:52:32;;;;;;;5.32;3.08;;;1.80;99.90;;;;;;5031133;28;20028;-85
2022/01/31 00:54:58;;;;;;;5.60;3.55;;;1.80;99.90;;;;;;5027990;28;20088;-86
2022/01/31 00:57:24;;;;;;;5.47;3.30;;;1.80;99.90;;;;;;5028941;28;20026;-86
2022/01/31 00:59:51;;;;;;;3.75;2.92;;;1.90;99.90;;;;;;5027582;28;20031;-85
2022/01/31 01:02:20;;;;;;;5.82;3.17;;;1.90;99.90;;;;;;5035067;28;20502;-86
2022/01/31 01:04:46;;;;;;;4.88;3.60;;;1.80;99.90;;;;;;5030974;28;20025;-86
2022/01/31 01:07:14;;;;;;;4.82;3.00;;;1.90;99.90;;;;;;5028380;28;20414;-86
2022/01/31 01:09:44;;;;;;;4.03;3.08;;;1.80;99.90;;;;;;5024674;28;20021;-86
2022/01/31 01:12:10;;;;;;;4.97;3.05;;;1.90;99.90;;;;;;5029981;28;20057;-85
2022/01/31 01:14:36;;;;;;;4.30;2.75;;;1.90;99.90;;;;;;5028754;28;20040;-84
2022/01/31 01:17:03;;;;;;;5.13;2.80;;;1.90;99.90;;;;;;5029211;28;20060;-85
2022/01/31 01:19:28;;;;;;;4.28;2.90;;;1.90;99.90;;;;;;5030422;28;20025;-85
2022/01/31 01:21:54;;;;;;;3.47;2.80;;;2.00;99.90;;;;;;5028250;28;20414;-85
2022/01/31 01:24:20;;;;;;;3.60;2.58;;;2.00;99.90;;;;;;5027253;28;20104;-85
2022/01/31 01:26:47;;;;;;;3.55;2.35;;;2.00;99.90;;;;;;5027763;28;20025;-86
2022/01/31 01:29:13;;;;;;;5.07;2.75;;;2.00;99.90;;;;;;5028711;28;20068;-85
2022/01/31 01:31:39;;;;;;;4.28;2.53;;;2.00;99.90;;;;;;5030977;28;20025;-85
2022/01/31 01:34:05;;;;;;;3.88;2.88;;;2.00;99.90;;;;;;5028421;28;20025;-85
2022/01/31 01:36:32;;;;;;;4.22;2.50;;;2.00;99.90;;;;;;5027611;28;20037;-85
2022/01/31 01:38:58;;;;;;;4.00;2.85;;;2.10;99.90;;;;;;5018019;28;20079;-85
2022/01/31 01:41:25;;;;;;;3.83;2.60;;;2.10;99.90;;;;;;5026828;28;20573;-85
2022/01/31 01:43:50;;;;;;;3.08;2.17;;;2.10;99.90;;;;;;5034700;28;20045;-84
2022/01/31 01:46:16;;;;;;;3.38;2.25;;;2.10;99.90;;;;;;5028082;28;20077;-85
2022/01/31 01:48:42;;;;;;;4.25;2.22;;;2.10;99.90;;;;;;5032241;28;20028;-85
2022/01/31 01:51:07;;;;;;;5.70;2.90;;;2.10;99.90;;;;;;5027886;28;20067;-85
2022/01/31 01:53:33;;;;;;;4.25;2.83;;;2.10;99.90;;;;;;5014867;28;20049;-85
2022/01/31 01:55:59;;;;;;;3.67;2.60;;;2.20;99.90;;;;;;5028432;28;20573;-85
2022/01/31 01:58:29;;;;;;;4.32;2.85;;;2.20;99.90;;;;;;5029859;28;20037;-86
2022/01/31 02:00:59;;;;;;;4.47;2.90;;;2.30;99.90;;;;;;5028555;28;20068;-86
2022/01/31 02:03:27;;;;;;;5.80;3.30;;;2.20;99.90;;;;;;5021273;28;20029;-86
2022/01/31 02:05:54;;;;;;;3.10;2.60;;;2.20;99.90;;;;;;5027286;28;20026;-86
2022/01/31 02:08:20;;;;;;;5.78;2.90;;;2.30;99.90;;;;;;5026691;28;20533;-85
2022/01/31 02:10:46;;;;;;;3.95;2.65;;;2.30;99.90;;;;;;5029931;28;20037;-85
2022/01/31 02:13:15;;;;;;;4.00;2.53;;;2.30;99.90;;;;;;5035191;28;20028;-86
2022/01/31 02:15:43;;;;;;;5.10;2.72;;;2.20;99.90;;;;;;5032471;28;20028;-85
2022/01/31 02:18:09;;;;;;;3.83;2.40;;;2.30;99.90;;;;;;5029412;28;20487;-85
2022/01/31 02:20:39;;;;;;;4.35;2.97;;;2.30;99.90;;;;;;5028147;28;20025;-85
2022/01/31 02:23:10;;;;;;;3.75;2.92;;;2.30;99.90;;;;;;5033869;28;20560;-85
2022/01/31 02:26:03;;;;;;;4.13;2.90;;;2.30;99.90;;;;;;5029548;28;20044;-85
2022/01/31 02:28:31;;;;;;;4.55;2.90;;;2.30;99.90;;;;;;5040622;28;20490;-85
2022/01/31 02:30:57;;;;;;;4.35;2.80;;;2.30;99.90;;;;;;5030523;28;20026;-85
2022/01/31 02:33:24;;;;;;;5.75;3.22;;;2.30;99.90;;;;;;5026157;28;20061;-85
2022/01/31 02:35:54;;;;;;;5.40;2.95;;;2.40;99.90;;;;;;5027792;28;20013;-85
2022/01/31 02:38:19;;;;;;;4.95;3.03;;;2.40;99.90;;;;;;5026710;28;20264;-85
2022/01/31 02:40:45;;;;;;;4.18;2.42;;;2.40;99.90;;;;;;5029468;28;20025;-85
2022/01/31 02:43:21;;;;;;;4.90;3.22;;;2.40;99.90;;;;;;5028168;28;20065;-85
2022/01/31 02:45:48;;;;;;;3.92;2.63;;;2.40;99.90;;;;;;5030131;28;20018;-85
2022/01/31 02:48:16;;;;;;;5.15;2.90;;;2.40;99.90;;;;;;5031568;28;20030;-86
2022/01/31 02:50:42;;;;;;;5.88;3.47;;;2.50;99.90;;;;;;5031094;28;20056;-85
2022/01/31 02:53:22;;;;;;;5.55;3.20;;;2.60;99.90;;;;;;5031061;28;20057;-85
2022/01/31 02:55:49;;;;;;;4.53;3.15;;;2.60;99.90;;;;;;5032093;28;20126;-85
2022/01/31 02:58:16;;;;;;;6.45;3.60;;;2.70;99.90;;;;;;5031905;28;20026;-85
2022/01/31 03:00:41;;;;;;;5.20;3.25;;;2.70;99.90;;;;;;5034362;28;20073;-85
2022/01/31 03:03:07;;;;;;;6.47;2.85;;;2.60;99.90;;;;;;5030692;28;20052;-85
2022/01/31 03:05:34;;;;;;;4.50;2.65;;;2.70;99.90;;;;;;5031796;28;20441;-85
2022/01/31 03:08:00;;;;;;;5.90;3.15;;;2.70;99.90;;;;;;5032636;28;20074;-86
2022/01/31 03:10:26;;;;;;;5.63;3.20;;;2.80;99.90;;;;;;5032210;28;20053;-86
2022/01/31 03:12:52;;;;;;;5.63;3.60;;;2.80;99.90;;;;;;5029813;28;20112;-87
2022/01/31 03:15:18;;;;;;;4.88;3.10;;;2.90;99.90;;;;;;5030290;28;20570;-86
2022/01/31 03:17:48;;;;;;;4.65;3.05;;;2.90;99.90;;;;;;5029965;28;20525;-85
2022/01/31 03:20:15;;;;;;;3.40;2.30;;;2.90;99.90;;;;;;5030858;28;20024;-86
2022/01/31 03:22:41;;;;;;;3.53;2.65;;;2.90;99.90;;;;;;5032436;28;20029;-85
2022/01/31 03:25:07;;;;;;;5.18;3.20;;;2.90;99.90;;;;;;5029961;28;20022;-84
2022/01/31 03:27:33;;;;;;;4.53;2.75;;;2.90;99.90;;;;;;5034170;28;20025;-85
2022/01/31 03:29:59;;;;;;;5.05;3.20;;;2.90;99.90;;;;;;5029148;28;20632;-85
2022/01/31 03:32:24;;;;;;;4.70;3.25;;;2.90;99.90;;;;;;5031532;28;20508;-85
2022/01/31 03:34:50;;;;;;;5.47;3.47;;;2.90;99.90;;;;;;5039601;28;20021;-85
2022/01/31 03:37:16;;;;;;;5.68;3.88;;;3.00;99.90;;;;;;5031450;28;20100;-86
2022/01/31 03:39:41;;;;;;;5.15;3.42;;;2.90;99.90;;;;;;5029553;28;20018;-86
2022/01/31 03:42:07;;;;;;;5.30;3.72;;;3.00;99.90;;;;;;5035525;28;20525;-86
2022/01/31 03:44:33;;;;;;;6.85;3.80;;;3.00;99.90;;;;;;5033411;28;20096;-86
2022/01/31 03:46:59;;;;;;;6.40;4.28;;;3.00;99.90;;;;;;5030491;28;20046;-85
2022/01/31 03:49:26;;;;;;;7.03;4.35;;;2.90;99.90;;;;;;5032075;28;20434;-85
2022/01/31 03:51:52;;;;;;;8.70;4.20;;;2.90;99.90;;;;;;5028658;28;20025;-85
2022/01/31 03:54:18;;;;;;;7.80;4.55;;;2.90;99.90;;;;;;5030115;28;20446;-85
2022/01/31 03:56:43;;;;;;;7.78;4.60;;;2.90;99.90;;;;;;5030255;28;20554;-85
2022/01/31 03:59:09;;;;;;;7.75;4.38;;;2.90;99.90;;;;;;5029342;28;20388;-85
2022/01/31 04:01:35;;;;;;;7.82;4.53;;;2.90;99.90;;;;;;5035615;28;20021;-85
2022/01/31 04:04:00;;;;;;;7.60;4.43;;;2.90;99.90;;;;;;5030588;28;20029;-85
2022/01/31 04:06:26;;;;;;;7.63;4.63;;;2.90;99.90;;;;;;5024926;28;20518;-85
2022/01/31 04:08:52;;;;;;;6.85;4.00;;;2.90;99.90;;;;;;5029849;28;20528;-84
2022/01/31 04:11:18;;;;;;;8.38;4.70;;;2.90;99.90;;;;;;5029863;28;20075;-85
2022/01/31 04:13:44;;;;;;;7.82;4.22;;;2.80;99.90;;;;;;5032036;28;20033;-85
2022/01/31 04:16:10;;;;;;;6.78;4.50;;;2.90;99.90;;;;;;5029502;28;20029;-85
2022/01/31 04:18:36;;;;;;;6.43;3.90;;;2.80;99.90;;;;;;5028358;28;20041;-85
2022/01/31 04:21:02;;;;;;;9.70;4.50;;;2.90;99.90;;;;;;5034726;28;20025;-86
2022/01/31 04:23:29;;;;;;;6.80;4.43;;;2.90;99.90;;;;;;5033099;28;20045;-85
2022/01/31 04:26:02;;;;;;;6.95;4.30;;;2.90;99.90;;;;;;5032321;28;20017;-87
2022/01/31 04:28:50;;;;;;;9.15;4.50;;;2.90;99.90;;;;;;5035512;28;20029;-86
2022/01/31 04:33:49;;;;;;;8.18;4.50;;;2.90;99.90;;;;;;5031500;28;20133;-86
2022/01/31 04:36:16;;;;;;;8.77;5.20;;;2.90;99.90;;;;;;5028776;28;20132;-86
2022/01/31 04:38:47;;;;;;;7.10;4.13;;;2.90;99.90;;;;;;5029379;28;20025;-86
2022/01/31 04:41:13;;;;;;;7.97;4.40;;;2.90;99.90;;;;;;5033204;28;20033;-86
2022/01/31 04:43:39;;;;;;;7.45;4.22;;;2.90;99.90;;;;;;5031210;28;20028;-86
2022/01/31 04:46:08;;;;;;;6.95;4.55;;;2.90;99.90;;;;;;5029301;28;20050;-85
2022/01/31 04:48:34;;;;;;;8.85;4.47;;;3.00;99.90;;;;;;5029042;28;20482;-85
2022/01/31 04:51:01;;;;;;;7.72;4.45;;;3.00;99.90;;;;;;5027447;28;20053;-85
2022/01/31 04:53:26;;;;;;;7.88;4.53;;;3.00;99.90;;;;;;5029304;28;20033;-87
2022/01/31 04:55:53;;;;;;;8.23;4.97;;;3.00;99.90;;;;;;5029540;28;20021;-86
2022/01/31 04:58:21;;;;;;;8.52;4.70;;;3.00;99.90;;;;;;5032376;28;20037;-86
2022/01/31 05:00:47;;;;;;;9.10;5.10;;;3.00;99.90;;;;;;5032720;28;20100;-86
2022/01/31 05:03:16;;;;;;;8.15;4.90;;;3.00;99.90;;;;;;5024509;28;20108;-86
2022/01/31 05:05:42;;;;;;;6.18;4.18;;;3.00;99.90;;;;;;5029132;28;20009;-85
2022/01/31 05:08:08;;;;;;;6.93;4.32;;;3.00;99.90;;;;;;5027427;28;20088;-85
2022/01/31 05:10:35;;;;;;;7.70;4.43;;;3.00;99.90;;;;;;5030039;28;20637;-85
2022/01/31 05:13:02;;;;;;;7.60;4.72;;;3.00;99.90;;;;;;5031798;28;20021;-85
2022/01/31 05:15:28;;;;;;;7.63;4.78;;;3.00;99.90;;;;;;5035232;28;20032;-86
2022/01/31 05:17:53;;;;;;;7.93;4.55;;;3.10;99.90;;;;;;5028303;28;20033;-86
2022/01/31 05:20:19;;;;;;;8.25;4.78;;;3.10;99.90;;;;;;5032986;28;20029;-84
2022/01/31 05:22:45;;;;;;;7.60;4.22;;;3.10;99.90;;;;;;5032547;28;20064;-85
2022/01/31 05:25:11;;;;;;;8.65;5.03;;;3.10;99.90;;;;;;5028559;28;20025;-84
2022/01/31 05:27:36;;;;;;;9.65;5.13;;;3.10;99.90;;;;;;5028895;28;20018;-85
2022/01/31 05:30:04;;;;;;;10.00;5.22;;;3.10;99.90;;;;;;5027439;28;20108;-84
2022/01/31 05:32:30;;;;;;;9.50;5.10;;;3.10;99.90;;;;;;5030873;28;20074;-84
2022/01/31 05:34:55;;;;;;;8.48;5.13;;;3.20;99.90;;;;;;5029033;28;20092;-84
2022/01/31 05:37:21;;;;;;;9.98;5.53;;;3.20;99.90;;;;;;5028661;28;20040;-85
2022/01/31 05:39:47;;;;;;;10.02;5.53;;;3.20;99.90;;;;;;5021042;28;20078;-84
2022/01/31 05:42:13;;;;;;;9.32;5.53;;;3.20;99.90;;;;;;5024087;28;20032;-84
2022/01/31 05:44:39;;;;;;;8.40;5.60;;;3.20;99.90;;;;;;5032264;28;20226;-84
2022/01/31 05:47:05;;;;;;;9.63;5.53;;;3.20;99.90;;;;;;5029925;28;20048;-84
2022/01/31 05:49:32;;;;;;;8.85;5.03;;;3.20;99.90;;;;;;5029944;28;20497;-85
2022/01/31 05:52:04;;;;;;;11.40;6.10;;;3.20;99.90;;;;;;5030085;28;20117;-84
2022/01/31 05:54:32;;;;;;;8.63;5.30;;;3.20;99.90;;;;;;5033977;28;20032;-84
2022/01/31 05:56:59;;;;;;;11.32;6.18;;;3.30;99.90;;;;;;5031147;28;20029;-84
2022/01/31 05:59:25;;;;;;;7.70;5.28;;;3.20;99.90;;;;;;5028567;28;20026;-84
2022/01/31 06:01:52;;;;;;;9.02;5.43;;;3.30;99.90;;;;;;5032818;28;20096;-85
2022/01/31 06:04:18;;;;;;;10.32;6.05;;;3.30;99.90;;;;;;5019994;28;20494;-85
2022/01/31 06:06:43;;;;;;;10.45;5.82;;;3.30;99.90;;;;;;5024399;28;20036;-85
2022/01/31 06:09:09;;;;;;;9.68;5.63;;;3.30;99.90;;;;;;5027701;28;20029;-85
2022/01/31 06:11:35;;;;;;;9.30;5.43;;;3.30;99.90;;;;;;5030331;28;20025;-85
2022/01/31 06:14:02;;;;;;;10.02;6.13;;;3.30;99.90;;;;;;5028176;28;20060;-85
2022/01/31 06:16:29;;;;;;;11.60;5.85;;;3.30;99.90;;;;;;5029600;28;20029;-85
2022/01/31 06:18:55;;;;;;;18.50;8.65;;;3.30;99.90;;;;;;5027729;28;20100;-86
2022/01/31 06:21:21;;;;;;;15.00;7.88;;;3.30;99.90;;;;;;5032194;28;20029;-86
2022/01/31 06:23:46;;;;;;;12.25;6.97;;;3.40;99.90;;;;;;5034797;28;20025;-85
2022/01/31 06:26:12;;;;;;;10.63;6.35;;;3.40;99.90;;;;;;5046742;28;20040;-86
2022/01/31 06:28:38;;;;;;;12.02;6.85;;;3.40;99.90;;;;;;5032474;28;20068;-86
2022/01/31 06:31:04;;;;;;;9.50;5.45;;;3.40;99.90;;;;;;5043961;28;20375;-87
2022/01/31 06:33:29;;;;;;;10.88;6.78;;;3.40;99.90;;;;;;5031964;28;20491;-86
2022/01/31 06:35:55;;;;;;;9.05;5.05;;;3.40;99.90;;;;;;5029897;28;20490;-85
2022/01/31 06:38:22;;;;;;;10.32;6.15;;;3.40;99.90;;;;;;5036111;28;20053;-86
2022/01/31 06:40:49;;;;;;;10.43;6.03;;;3.50;99.90;;;;;;5037465;28;20092;-85
2022/01/31 06:43:15;;;;;;;9.90;6.10;;;3.50;99.90;;;;;;5031945;28;20022;-85
2022/01/31 06:45:40;;;;;;;8.23;5.35;;;3.50;99.90;;;;;;5031382;28;20175;-86
2022/01/31 06:48:06;;;;;;;8.07;5.45;;;3.50;99.90;;;;;;5031177;28;20052;-85
2022/01/31 06:50:33;;;;;;;8.63;5.35;;;3.50;99.90;;;;;;5029906;28;20493;-85
2022/01/31 06:53:01;;;;;;;10.60;6.65;;;3.50;99.90;;;;;;5031511;28;20029;-85
2022/01/31 06:55:28;;;;;;;10.05;5.63;;;3.60;99.90;;;;;;5032127;28;20033;-85
2022/01/31 06:57:54;;;;;;;9.27;6.05;;;3.60;99.90;;;;;;5030437;28;20025;-85
2022/01/31 07:00:21;;;;;;;10.85;5.95;;;3.60;99.90;;;;;;5035615;28;20522;-85
2022/01/31 07:02:48;;;;;;;10.07;6.32;;;3.60;99.90;;;;;;5032884;28;20032;-85
2022/01/31 07:05:14;;;;;;;11.30;6.53;;;3.60;99.90;;;;;;5031770;28;20031;-86
2022/01/31 07:07:40;;;;;;;10.82;6.88;;;3.60;99.90;;;;;;5032369;28;20029;-86
2022/01/31 07:10:06;;;;;;;11.60;6.70;;;3.60;99.90;;;;;;5029483;28;20026;-85
2022/01/31 07:12:35;;;;;;;10.88;5.93;;;3.60;99.90;;;;;;5031203;28;20072;-87
2022/01/31 07:15:03;;;;;;;8.85;5.38;;;3.60;99.90;;;;;;5035134;28;20029;-87
2022/01/31 07:17:30;;;;;;;9.25;5.43;;;3.60;99.90;;;;;;5031382;28;20025;-87
2022/01/31 07:19:56;;;;;;;9.05;5.90;;;3.60;99.90;;;;;;5032408;28;20025;-88
2022/01/31 07:22:27;;;;;;;8.85;5.32;;;3.60;99.90;;;;;;5030794;28;20036;-87
2022/01/31 07:25:04;;;;;;;7.63;5.32;;;3.60;99.90;;;;;;5033050;28;20103;-87
2022/01/31 07:27:31;;;;;;;9.00;5.15;;;3.60;99.90;;;;;;5036699;28;20083;-87
2022/01/31 07:29:56;;;;;;;10.13;6.40;;;3.60;99.90;;;;;;5030216;28;20502;-81
2022/01/31 07:32:23;;;;;;;12.65;7.00;;;3.60;99.90;;;;;;5030272;28;20108;-90
2022/01/31 07:34:55;;;;;;;13.75;6.65;;;3.60;99.90;;;;;;5032793;28;20025;-92
2022/01/31 07:37:21;;;;;;;10.60;6.28;;;3.60;99.90;;;;;;5026452;28;20115;-93
2022/01/31 07:39:47;;;;;;;13.43;6.93;;;3.70;99.90;;;;;;5025800;28;20132;-93
2022/01/31 07:42:12;;;;;;;11.68;6.40;;;3.70;99.90;;;;;;5033544;28;20404;-91
2022/01/31 07:44:39;;;;;;;10.75;5.93;;;3.70;99.90;;;;;;5033861;28;20032;-94
2022/01/31 07:47:05;;;;;;;11.10;6.20;;;3.70;99.90;;;;;;5032081;28;20038;-93
2022/01/31 07:49:31;;;;;;;9.25;5.18;;;3.70;99.90;;;;;;5031910;28;20156;-91
2022/01/31 07:51:58;;;;;;;9.30;5.63;;;3.70;99.90;;;;;;5026807;28;20120;-92
2022/01/31 07:54:24;;;;;;;8.32;5.75;;;3.70;99.90;;;;;;5029648;28;20064;-89
2022/01/31 07:56:50;;;;;;;7.93;4.97;;;3.70;99.90;;;;;;5030339;28;20033;-90
2022/01/31 07:59:16;;;;;;;8.50;5.28;;;3.80;99.90;;;;;;5029491;28;20618;-90
2022/01/31 08:01:42;;;;;;;8.05;4.43;;;3.80;99.90;;;;;;5031455;28;20022;-91
2022/01/31 08:04:07;;;;;;;13.15;5.65;;;3.90;99.90;;;;;;5029393;28;20059;-91
2022/01/31 08:06:33;;;;;;;10.30;5.53;;;3.90;99.90;;;;;;5029650;28;20021;-90
2022/01/31 08:08:59;;;;;;;10.73;4.80;;;3.90;99.90;;;;;;5034119;28;20422;-91
2022/01/31 08:11:30;;;;;;;10.30;5.32;;;3.90;99.90;;;;;;5029155;28;20068;-90
2022/01/31 08:14:00;;;;;;;10.82;5.50;;;4.00;99.90;;;;;;5031017;28;20021;-91
2022/01/31 08:16:26;;;;;;;14.00;6.68;;;4.00;99.90;;;;;;5024751;28;20040;-90
2022/01/31 08:18:52;;;;;;;15.75;6.53;;;4.00;99.90;;;;;;5026971;28;20025;-92
2022/01/31 08:21:20;;;;;;;10.77;5.78;;;4.10;99.90;;;;;;5031259;28;20541;-93
2022/01/31 08:23:46;;;;;;;14.63;7.75;;;4.10;99.90;;;;;;5030511;28;20490;-93
2022/01/31 08:26:17;;;;;;;11.05;6.45;;;4.10;99.90;;;;;;5031126;28;21075;-92
2022/01/31 08:28:51;;;;;;;17.13;10.07;;;4.20;99.90;;;;;;5032749;28;20017;-91
2022/01/31 08:31:22;;;;;;;17.08;10.50;;;4.20;99.90;;;;;;5030404;28;20104;-90
2022/01/31 08:36:24;;;;;;;18.20;11.00;;;4.30;99.90;;;;;;5023952;28;20022;-88
2022/01/31 08:38:50;;;;;;;14.68;9.00;;;4.30;99.90;;;;;;5027558;28;20064;-89
2022/01/31 08:41:18;;;;;;;21.83;11.95;;;4.40;99.90;;;;;;5026539;28;20390;-88
2022/01/31 08:43:44;;;;;;;31.17;16.55;;;4.40;99.90;;;;;;5028202;28;20029;-88
2022/01/31 08:46:12;;;;;;;27.70;15.18;;;4.30;99.90;;;;;;5028977;28;20038;-89
2022/01/31 08:48:38;;;;;;;28.38;15.57;;;4.40;99.90;;;;;;5032098;28;20065;-89
2022/01/31 08:51:06;;;;;;;17.17;10.88;;;4.30;99.90;;;;;;5031232;28;20025;-88
2022/01/31 08:53:32;;;;;;;14.18;7.80;;;4.40;99.90;;;;;;5026826;28;20104;-89
2022/01/31 08:56:10;;;;;;;15.07;8.50;;;4.40;99.90;;;;;;5027397;28;20029;-88
2022/01/31 08:58:42;;;;;;;11.45;7.78;;;4.40;99.90;;;;;;5041279;28;20040;-89
2022/01/31 09:01:09;;;;;;;10.73;6.63;;;4.50;99.90;;;;;;5026968;28;20074;-89
2022/01/31 09:06:08;;;;;;;9.18;6.25;;;4.50;99.90;;;;;;5027258;28;20029;-91
2022/01/31 09:08:35;;;;;;;10.10;5.72;;;4.50;99.90;;;;;;5027079;28;20522;-89
2022/01/31 09:11:01;;;;;;;9.10;5.07;;;4.60;99.90;;;;;;5027706;28;20060;-89
2022/01/31 09:13:27;;;;;;;7.65;6.07;;;4.70;99.90;;;;;;5028955;28;20084;-91
2022/01/31 09:15:53;;;;;;;7.55;5.53;;;4.70;99.90;;;;;;5033498;28;20506;-91
2022/01/31 09:18:19;;;;;;;7.38;5.28;;;4.70;99.90;;;;;;5035686;28;20034;-91
2022/01/31 09:20:46;;;;;;;8.70;5.70;;;4.70;99.90;;;;;;5027789;28;20295;-90
2022/01/31 09:23:11;;;;;;;6.60;4.40;;;4.70;99.90;;;;;;5026532;28;20184;-87
2022/01/31 09:25:43;;;;;;;6.00;4.15;;;4.70;99.90;;;;;;5034667;28;20081;-88
2022/01/31 09:28:10;;;;;;;7.28;4.63;;;4.70;99.90;;;;;;5027394;28;20026;-87
2022/01/31 09:30:37;;;;;;;5.68;4.28;;;4.70;99.90;;;;;;5023571;28;20036;-88
2022/01/31 09:33:03;;;;;;;6.75;5.05;;;4.70;99.90;;;;;;5017805;28;20059;-89
2022/01/31 09:35:29;;;;;;;5.80;4.55;;;4.70;99.90;;;;;;5024816;28;20495;-88
2022/01/31 09:37:55;;;;;;;6.60;4.25;;;4.80;99.90;;;;;;5027665;28;20052;-86
2022/01/31 09:40:23;;;;;;;5.50;4.43;;;4.80;99.90;;;;;;5026417;28;20072;-88
2022/01/31 09:50:58;;;;;;;5.35;3.90;;;4.80;99.90;;;;;;5026569;28;20064;-90
2022/01/31 09:53:24;;;;;;;7.22;4.13;;;4.90;99.90;;;;;;5026093;28;20022;-92
2022/01/31 09:55:52;;;;;;;7.53;3.70;;;5.00;99.90;;;;;;5027373;28;20022;-89
2022/01/31 09:58:19;;;;;;;5.35;3.85;;;5.00;99.90;;;;;;5036729;28;20029;-89
2022/01/31 10:00:44;;;;;;;4.32;3.50;;;5.00;99.90;;;;;;5026569;28;20022;-88
2022/01/31 10:03:11;;;;;;;6.30;4.60;;;5.00;99.90;;;;;;5031194;28;20645;-91
2022/01/31 10:05:38;;;;;;;5.25;4.05;;;5.00;99.90;;;;;;5026261;28;20097;-91
2022/01/31 10:08:14;;;;;;;6.90;4.30;;;5.00;99.90;;;;;;5026156;28;20030;-89
2022/01/31 10:10:43;;;;;;;6.05;4.53;;;5.10;99.90;;;;;;5027826;28;20021;-89
2022/01/31 10:16:26;;;;;;;5.78;4.18;;;5.20;99.90;;;;;;5025654;28;20167;-87
2022/01/31 10:19:07;;;;;;;7.22;4.68;;;5.40;99.90;;;;;;5025136;28;20030;-87
2022/01/31 10:22:05;;;;;;;8.55;5.43;;;5.60;99.90;;;;;;5025495;28;20029;-89
2022/01/31 10:24:34;;;;;;;8.73;5.72;;;5.50;99.90;;;;;;5024066;28;20030;-87
2022/01/31 10:27:12;;;;;;;8.82;5.57;;;5.60;99.90;;;;;;5036926;28;20074;-87
2022/01/31 10:29:38;;;;;;;8.30;5.97;;;5.80;99.90;;;;;;5025211;28;20026;-88
2022/01/31 10:32:10;;;;;;;9.52;5.68;;;5.80;99.90;;;;;;5028296;28;20036;-89
2022/01/31 10:34:59;;;;;;;8.00;5.32;;;6.00;99.90;;;;;;5029199;28;20022;-88
2022/01/31 10:37:26;;;;;;;8.77;5.57;;;5.90;99.90;;;;;;5026678;28;20120;-89
2022/01/31 10:45:36;;;;;;;9.52;6.32;;;6.00;99.90;;;;;;5026201;28;20032;-89
2022/01/31 10:53:43;;;;;;;8.80;5.70;;;6.10;99.90;;;;;;5018807;28;20392;-89
2022/01/31 10:56:08;;;;;;;9.15;5.68;;;6.10;99.90;;;;;;5040923;28;20032;-89
2022/01/31 10:58:34;;;;;;;8.05;5.47;;;6.10;99.90;;;;;;5027980;28;20044;-88
2022/01/31 11:01:14;;;;;;;6.93;4.88;;;6.10;99.90;;;;;;5026454;28;20498;-88
2022/01/31 11:03:40;;;;;;;6.70;4.85;;;6.10;99.90;;;;;;5026935;28;20029;-87
2022/01/31 11:06:10;;;;;;;8.18;5.32;;;6.10;99.90;;;;;;5028715;28;20021;-87
2022/01/31 11:08:36;;;;;;;8.50;5.25;;;6.20;99.90;;;;;;5025347;28;20030;-87
2022/01/31 11:11:03;;;;;;;7.75;5.25;;;6.20;99.90;;;;;;5027726;28;20163;-86
2022/01/31 11:13:31;;;;;;;6.60;4.68;;;6.30;99.90;;;;;;5028981;28;20517;-86
2022/01/31 11:15:57;;;;;;;7.85;4.63;;;6.50;99.90;;;;;;5034147;28;20029;-87
2022/01/31 11:18:26;;;;;;;6.75;4.70;;;6.50;99.90;;;;;;5036384;28;20037;-88
2022/01/31 11:20:58;;;;;;;6.03;4.32;;;6.60;99.90;;;;;;5031169;28;20018;-86
2022/01/31 11:23:27;;;;;;;6.00;4.78;;;6.60;99.90;;;;;;5028547;28;20036;-85
2022/01/31 11:25:56;;;;;;;9.80;6.47;;;6.70;99.90;;;;;;5039122;28;20094;-86
2022/01/31 11:28:23;;;;;;;10.02;7.03;;;6.70;99.90;;;;;;5031506;28;20100;-85
2022/01/31 11:30:51;;;;;;;10.20;6.45;;;6.80;99.90;;;;;;5029166;28;20096;-85
2022/01/31 11:33:18;;;;;;;7.50;4.95;;;6.90;99.90;;;;;;5028661;28;20026;-86
2022/01/31 11:35:46;;;;;;;7.32;4.97;;;6.80;99.90;;;;;;5029530;28;20025;-86
2022/01/31 11:38:11;;;;;;;4.82;4.05;;;6.90;99.90;;;;;;5028089;28;20340;-86
2022/01/31 11:40:38;;;;;;;6.93;4.40;;;6.90;99.90;;;;;;5029791;28;20140;-85
2022/01/31 11:43:04;;;;;;;6.07;4.10;;;7.10;99.90;;;;;;5028886;28;20026;-86
2022/01/31 11:45:37;;;;;;;5.57;4.20;;;7.10;99.90;;;;;;5031444;28;20026;-86
2022/01/31 11:48:09;;;;;;;4.88;3.70;;;7.10;99.90;;;;;;5025844;28;20064;-85
2022/01/31 11:50:43;;;;;;;4.65;3.58;;;7.10;99.90;;;;;;5027702;28;20369;-84
2022/01/31 11:53:09;;;;;;;4.38;3.38;;;7.20;99.90;;;;;;5029445;28;20057;-84
2022/01/31 11:55:38;;;;;;;4.07;3.42;;;7.20;99.90;;;;;;5026468;28;20060;-85
2022/01/31 11:58:09;;;;;;;5.20;2.80;;;7.20;99.90;;;;;;5028944;28;20083;-85
2022/01/31 12:00:37;;;;;;;4.50;3.00;;;7.20;99.90;;;;;;5027133;28;20494;-84
2022/01/31 12:03:08;;;;;;;4.50;3.35;;;7.20;99.90;;;;;;5029826;28;20032;-84
2022/01/31 12:05:37;;;;;;;3.20;2.90;;;7.30;99.90;;;;;;5024006;28;20018;-83
2022/01/31 12:08:15;;;;;;;4.57;3.65;;;7.30;99.90;;;;;;5031965;28;20029;-83
2022/01/31 12:10:54;;;;;;;5.72;3.85;;;7.50;99.90;;;;;;5029108;28;20032;-83
2022/01/31 12:13:45;;;;;;;4.97;3.55;;;7.60;99.90;;;;;;5028945;28;20051;-83
2022/01/31 12:17:31;;;;;;;5.32;2.83;;;7.60;99.90;;;;;;5027813;28;20075;-83
2022/01/31 12:22:00;;;;;;;2.67;2.45;;;7.60;99.90;;;;;;5028171;28;20084;-83
2022/01/31 12:24:38;;;;;;;3.35;2.67;;;7.40;99.90;;;;;;5025152;28;20028;-83
2022/01/31 12:27:15;;;;;;;2.60;2.30;;;7.50;99.90;;;;;;5027195;28;20066;-83
2022/01/31 12:29:51;;;;;;;2.47;2.22;;;7.50;99.90;;;;;;5025735;28;20033;-83
2022/01/31 12:32:17;;;;;;;3.85;2.28;;;7.60;99.90;;;;;;5028427;28;20026;-82
2022/01/31 12:34:58;;;;;;;2.67;2.38;;;7.70;99.90;;;;;;5027772;28;20032;-82
2022/01/31 12:37:30;;;;;;;3.25;2.95;;;7.90;99.90;;;;;;5029401;28;20037;-82
2022/01/31 12:40:03;;;;;;;2.80;2.47;;;7.90;99.90;;;;;;5027196;28;20036;-83
2022/01/31 12:45:09;;;;;;;2.65;2.38;;;8.20;99.90;;;;;;5028175;28;20403;-83
2022/01/31 12:47:35;;;;;;;3.13;2.13;;;8.30;99.90;;;;;;5031135;28;20038;-84
2022/01/31 12:50:23;;;;;;;3.15;2.78;;;8.60;99.90;;;;;;5030994;28;20380;-84
2022/01/31 12:52:49;;;;;;;3.30;3.00;;;8.70;99.90;;;;;;5027630;28;20223;-83
2022/01/31 12:55:16;;;;;;;2.45;2.25;;;8.50;99.90;;;;;;5025971;28;20486;-83
2022/01/31 12:57:48;;;;;;;3.53;2.88;;;8.50;99.90;;;;;;5027797;28;20053;-83
2022/01/31 13:00:14;;;;;;;5.70;3.65;;;8.60;99.90;;;;;;5017192;28;23197;-82
2022/01/31 13:02:48;;;;;;;3.95;2.75;;;8.60;99.90;;;;;;5027741;28;20788;-81
2022/01/31 13:05:13;;;;;;;2.70;2.20;;;8.40;99.90;;;;;;5021276;28;20029;-90
2022/01/31 13:07:39;;;;;;;10.85;5.78;;;8.30;99.90;;;;;;5029932;28;20108;-91
2022/01/31 13:10:09;;;;;;;14.35;6.43;;;8.10;99.90;;;;;;5028415;28;20506;-91
2022/01/31 13:12:36;;;;;;;16.50;7.82;;;8.10;99.90;;;;;;5026911;28;20029;-91
2022/01/31 13:15:03;;;;;;;12.93;7.30;;;8.10;99.90;;;;;;5029419;28;20051;-91
2022/01/31 13:17:29;;;;;;;6.60;5.90;;;8.10;99.90;;;;;;5029900;28;20021;-91
2022/01/31 13:19:56;;;;;;;5.97;5.05;;;8.00;99.90;;;;;;5022544;28;20041;-90
2022/01/31 13:22:28;;;;;;;4.45;4.05;;;8.00;99.90;;;;;;5029388;28;20037;-90
2022/01/31 13:24:57;;;;;;;5.70;4.22;;;7.90;99.90;;;;;;5028847;28;20021;-91
2022/01/31 13:27:40;;;;;;;4.60;4.10;;;7.80;99.90;;;;;;5035342;28;20045;-91
2022/01/31 13:30:11;;;;;;;3.28;2.92;;;7.80;99.90;;;;;;5020238;28;20365;-87
2022/01/31 13:32:38;;;;;;;;;;;7.80;99.90;;;;;;5012802;28;20018;-88
2022/01/31 13:35:13;;;;;;;4.93;3.42;;;7.80;99.90;;;;;;5027405;28;19905;-88